Terminal Aerodrome Forecast
Issued by NWS Mt. Holly, NJ

Home | Current Version | Previous Version | Text Only | Print | Product List | Glossary On
Versions: 1 2 3 4 5 6 7 8 9 10 11 12 13 14 15
216
FTUS41 KPHI 041123
TAFTTN
TAF
KTTN 041123Z 0412/0512 32005KT P6SM BKN040
     FM041400 33008KT P6SM SCT040 OVC250
     FM042300 VRB03KT P6SM OVC120
     FM050800 VRB03KT 5SM -RASN OVC025
     FM051000 14004KT 3SM -RA BR OVC015=

USA.gov is the U.S. government's official web portal to all federal, state and local government web resources and services.